Time;durP1;ratioP1;P1;durP2;ratioP2;P2;SDS_P1;SDS_P2;PMS_P1;PMS_P2;Temp;Humidity;BMP_temperature;BMP_pressure;BME280_temperature;BME280_humidity;BME280_pressure;Samples;Min_cycle;Max_cycle;Signal;HPM_P1;HPM_P2
2021/08/29 00:03:07;;;;;;;15.95;9.18;;;15.00;99.90;;;;;;6695836;88;20697;-74
2021/08/29 00:13:08;;;;;;;15.15;8.63;;;14.80;99.90;;;;;;6696085;88;20189;-74
2021/08/29 00:23:08;;;;;;;13.35;8.23;;;14.60;99.90;;;;;;6696084;88;20278;-74
2021/08/29 00:33:09;;;;;;;9.50;6.20;;;14.60;99.90;;;;;;6681273;88;20246;-74
2021/08/29 00:43:09;;;;;;;9.80;6.28;;;14.70;99.90;;;;;;6675796;88;20273;-74
2021/08/29 00:53:11;;;;;;;13.23;8.43;;;14.70;99.90;;;;;;6678961;88;20248;-74
2021/08/29 01:03:19;;;;;;;25.73;15.48;;;14.60;99.90;;;;;;6695613;88;20301;-74
2021/08/29 01:13:34;;;;;;;31.85;15.35;;;14.50;99.90;;;;;;6695456;88;20195;-74
2021/08/29 01:23:38;;;;;;;25.40;11.93;;;14.40;99.90;;;;;;6695283;88;20249;-74
2021/08/29 01:33:39;;;;;;;17.83;8.70;;;14.40;99.90;;;;;;6679048;88;20278;-74
2021/08/29 01:43:41;;;;;;;15.93;8.45;;;14.40;99.90;;;;;;6677879;88;20659;-74
2021/08/29 01:53:42;;;;;;;15.15;7.35;;;14.50;99.90;;;;;;6694553;88;20202;-74
2021/08/29 02:03:44;;;;;;;14.77;7.30;;;14.50;99.90;;;;;;6695113;88;20202;-74
2021/08/29 02:13:46;;;;;;;14.93;7.53;;;14.40;99.90;;;;;;6698243;88;20194;-73
2021/08/29 02:23:46;;;;;;;17.20;8.05;;;14.30;99.90;;;;;;6695808;88;20228;-73
2021/08/29 02:33:47;;;;;;;17.77;8.95;;;14.30;99.90;;;;;;6694044;88;20187;-73
2021/08/29 02:43:49;;;;;;;23.87;9.95;;;14.40;99.90;;;;;;6693942;88;20223;-73
2021/08/29 02:53:50;;;;;;;19.90;10.02;;;14.30;99.90;;;;;;6693868;88;20223;-74
2021/08/29 03:03:51;;;;;;;26.02;10.65;;;14.20;99.90;;;;;;6692890;88;20230;-74
2021/08/29 03:13:52;;;;;;;23.45;9.55;;;14.30;99.90;;;;;;6695682;88;20187;-74
2021/08/29 03:23:53;;;;;;;22.73;11.50;;;14.30;99.90;;;;;;6696476;88;20194;-74
2021/08/29 03:33:57;;;;;;;19.58;10.10;;;14.30;99.90;;;;;;6696455;88;20182;-73
2021/08/29 03:43:58;;;;;;;20.58;10.65;;;14.30;99.90;;;;;;6696787;88;20654;-74
2021/08/29 03:54:00;;;;;;;25.58;11.63;;;14.30;99.90;;;;;;6696322;88;20204;-73
2021/08/29 04:04:00;;;;;;;21.45;11.55;;;14.20;99.90;;;;;;6696231;88;20223;-73
2021/08/29 04:14:01;;;;;;;18.37;10.73;;;14.20;99.90;;;;;;6695693;88;20187;-73
2021/08/29 04:24:02;;;;;;;20.65;10.65;;;14.30;99.90;;;;;;6695535;88;21163;-74
2021/08/29 04:34:05;;;;;;;20.98;11.75;;;14.20;99.90;;;;;;6678674;88;20250;-74
2021/08/29 04:44:07;;;;;;;22.40;11.95;;;14.20;99.90;;;;;;6678324;88;20237;-73
2021/08/29 04:54:08;;;;;;;22.73;11.63;;;14.20;99.90;;;;;;6678285;88;20200;-73
2021/08/29 05:04:09;;;;;;;25.42;12.40;;;14.20;99.90;;;;;;6678865;88;20464;-73
2021/08/29 05:14:09;;;;;;;21.20;12.07;;;14.30;99.90;;;;;;6691409;88;20203;-73
2021/08/29 05:24:30;;;;;;;22.48;11.32;;;14.30;99.90;;;;;;6711754;77;20341;-78
2021/08/29 05:34:31;;;;;;;22.30;10.73;;;14.30;99.90;;;;;;6685985;88;20267;-77
2021/08/29 05:44:31;;;;;;;18.20;10.32;;;14.40;99.90;;;;;;6681256;88;20349;-75
2021/08/29 05:54:32;;;;;;;23.33;12.43;;;14.40;99.90;;;;;;6680931;88;20357;-76
2021/08/29 06:04:32;;;;;;;29.00;12.98;;;14.50;99.90;;;;;;6685168;88;20190;-77
2021/08/29 06:14:33;;;;;;;22.87;11.45;;;14.60;99.90;;;;;;6684633;88;20203;-77
2021/08/29 06:24:33;;;;;;;22.30;10.15;;;14.60;99.90;;;;;;6680638;88;20359;-77
2021/08/29 06:34:34;;;;;;;23.35;10.77;;;14.70;99.90;;;;;;6701511;88;20174;-77
2021/08/29 06:44:35;;;;;;;25.17;10.20;;;14.70;99.90;;;;;;6710866;88;20189;-75
2021/08/29 06:54:35;;;;;;;20.12;9.38;;;14.80;99.90;;;;;;6703381;88;20686;-76
2021/08/29 07:04:36;;;;;;;19.17;10.10;;;14.90;99.90;;;;;;6702734;88;20380;-77
2021/08/29 07:14:37;;;;;;;21.62;10.75;;;14.90;99.90;;;;;;6702409;88;20210;-78
2021/08/29 07:24:38;;;;;;;21.00;10.55;;;15.00;99.90;;;;;;6702832;88;20215;-77
2021/08/29 07:34:40;;;;;;;23.38;9.93;;;15.00;99.90;;;;;;6703138;88;20646;-76
2021/08/29 07:44:41;;;;;;;18.20;9.65;;;15.10;99.90;;;;;;6703290;88;20213;-78
2021/08/29 07:54:41;;;;;;;13.50;8.43;;;15.20;99.90;;;;;;6703287;88;20660;-76
2021/08/29 08:04:43;;;;;;;14.65;8.00;;;15.30;99.90;;;;;;6705658;88;20357;-77
2021/08/29 08:14:44;;;;;;;17.40;9.07;;;15.40;99.90;;;;;;6711228;88;20296;-76
2021/08/29 08:24:44;;;;;;;12.30;7.93;;;15.50;99.90;;;;;;6695072;88;20290;-76
2021/08/29 08:34:45;;;;;;;18.17;8.75;;;15.60;99.90;;;;;;6693445;88;20509;-76
2021/08/29 08:44:47;;;;;;;14.70;7.70;;;16.00;99.90;;;;;;6710463;88;20196;-78
2021/08/29 08:54:48;;;;;;;13.15;7.25;;;16.00;99.90;;;;;;6708398;88;20215;-78
2021/08/29 09:04:49;;;;;;;15.07;6.47;;;16.10;99.90;;;;;;6712475;88;20193;-79
2021/08/29 09:14:52;;;;;;;13.55;6.60;;;16.20;99.90;;;;;;6696074;88;20214;-77
2021/08/29 09:24:53;;;;;;;9.95;5.62;;;16.10;99.90;;;;;;6690274;88;20740;-77
2021/08/29 09:34:59;;;;;;;14.75;5.43;;;15.80;99.90;;;;;;6688131;88;20186;-77
2021/08/29 09:44:59;;;;;;;11.85;4.90;;;15.50;99.90;;;;;;6690338;88;20206;-76
2021/08/29 09:55:00;;;;;;;10.80;5.20;;;15.40;99.90;;;;;;6692184;88;20219;-78
2021/08/29 10:05:11;;;;;;;17.20;6.37;;;15.10;99.90;;;;;;6692016;88;20197;-77
2021/08/29 10:15:12;;;;;;;10.23;5.28;;;14.90;99.90;;;;;;6706017;88;20781;-78
2021/08/29 10:25:14;;;;;;;9.33;5.87;;;15.20;99.90;;;;;;6707712;88;20195;-77
2021/08/29 10:35:15;;;;;;;11.12;5.57;;;15.20;99.90;;;;;;6691169;88;20515;-78
2021/08/29 10:45:16;;;;;;;11.02;5.80;;;15.00;99.90;;;;;;6690739;89;20190;-78
2021/08/29 10:55:18;;;;;;;9.77;5.82;;;15.00;99.90;;;;;;6690127;89;20681;-77
2021/08/29 11:05:28;;;;;;;10.05;5.90;;;15.00;99.90;;;;;;6686009;88;20206;-78
2021/08/29 11:15:38;;;;;;;12.10;8.82;;;15.00;99.90;;;;;;6703773;88;20306;-78
2021/08/29 11:26:18;;;;;;;21.02;11.77;;;15.10;99.90;;;;;;6706626;88;20208;-78
2021/08/29 11:36:28;;;;;;;16.90;9.25;;;15.00;99.90;;;;;;6655144;89;20755;-75
2021/08/29 11:46:37;;;;;;;13.88;8.80;;;15.10;99.90;;;;;;6662719;89;20217;-75
2021/08/29 11:56:38;;;;;;;9.25;5.40;;;15.10;99.90;;;;;;6662573;89;20189;-76
2021/08/29 12:06:55;;;;;;;4.93;3.17;;;15.30;99.90;;;;;;6662198;89;20807;-76
2021/08/29 12:17:01;;;;;;;3.47;2.50;;;15.30;99.90;;;;;;6662111;89;20603;-75
2021/08/29 12:27:08;;;;;;;4.60;3.00;;;15.20;99.90;;;;;;6666680;88;20202;-75
2021/08/29 12:37:12;;;;;;;4.10;2.65;;;15.30;99.90;;;;;;6695958;88;20252;-75
2021/08/29 12:47:13;;;;;;;5.25;3.92;;;15.40;99.90;;;;;;6695907;88;20256;-75
2021/08/29 12:57:18;;;;;;;4.25;2.60;;;15.50;99.90;;;;;;6698489;88;20189;-75
2021/08/29 13:07:19;;;;;;;5.90;2.72;;;15.60;99.90;;;;;;6695463;88;20215;-75
2021/08/29 13:17:21;;;;;;;5.20;3.12;;;15.60;99.90;;;;;;6695416;88;20190;-75
2021/08/29 13:27:22;;;;;;;5.15;3.87;;;15.60;99.90;;;;;;6695184;88;20215;-75
2021/08/29 13:37:23;;;;;;;5.75;4.62;;;15.80;99.90;;;;;;6694729;88;20659;-75
2021/08/29 13:47:23;;;;;;;4.87;3.47;;;16.10;99.90;;;;;;6696326;88;20271;-75
2021/08/29 13:57:24;;;;;;;4.00;3.50;;;16.40;99.90;;;;;;6698351;88;20770;-75
2021/08/29 14:07:24;;;;;;;6.40;4.43;;;16.10;99.90;;;;;;6698047;88;20203;-76
2021/08/29 14:17:25;;;;;;;6.68;4.78;;;16.20;99.90;;;;;;6697695;88;20225;-75
2021/08/29 14:27:26;;;;;;;7.70;4.45;;;16.40;99.90;;;;;;6698046;88;20260;-75
2021/08/29 14:37:27;;;;;;;6.30;5.07;;;16.40;99.90;;;;;;6697579;88;20218;-76
2021/08/29 14:47:28;;;;;;;7.85;5.45;;;16.50;99.90;;;;;;6697015;88;20203;-75
2021/08/29 14:57:28;;;;;;;9.37;6.53;;;16.60;99.90;;;;;;6697253;88;21039;-76
2021/08/29 15:07:29;;;;;;;9.85;7.25;;;16.40;99.90;;;;;;6697985;88;20581;-75
2021/08/29 15:17:30;;;;;;;12.05;8.32;;;16.30;99.90;;;;;;6699196;88;20198;-76
2021/08/29 15:27:30;;;;;;;12.27;8.23;;;16.40;99.90;;;;;;6699011;88;20342;-75
2021/08/29 15:37:31;;;;;;;13.50;9.52;;;16.40;99.90;;;;;;6698945;88;20493;-75
2021/08/29 15:47:32;;;;;;;11.27;8.55;;;16.40;99.90;;;;;;6699269;88;20614;-75
2021/08/29 15:57:32;;;;;;;9.98;7.40;;;16.50;99.90;;;;;;6699825;88;20671;-76
2021/08/29 16:07:33;;;;;;;10.80;7.47;;;16.50;99.90;;;;;;6699801;88;20720;-75
2021/08/29 16:17:33;;;;;;;8.73;6.75;;;16.50;99.90;;;;;;6699348;88;20210;-75
2021/08/29 16:27:34;;;;;;;8.50;6.07;;;16.50;99.90;;;;;;6698929;88;20243;-76
2021/08/29 16:37:34;;;;;;;9.03;6.20;;;16.60;99.90;;;;;;6695426;88;20191;-76
2021/08/29 16:47:35;;;;;;;9.07;6.27;;;16.70;99.90;;;;;;6699084;88;20555;-76
2021/08/29 16:57:36;;;;;;;9.25;7.40;;;16.60;99.90;;;;;;6698401;88;20577;-76
2021/08/29 17:07:36;;;;;;;9.32;7.30;;;16.60;99.90;;;;;;6698335;88;20369;-76
2021/08/29 17:17:37;;;;;;;11.80;8.48;;;16.60;99.90;;;;;;6698233;88;20186;-75
2021/08/29 17:27:38;;;;;;;12.60;8.95;;;16.60;99.90;;;;;;6698377;88;20278;-75
2021/08/29 17:37:39;;;;;;;13.35;9.05;;;16.70;99.90;;;;;;6696294;88;20182;-75
2021/08/29 17:47:40;;;;;;;16.77;9.83;;;16.50;99.90;;;;;;6680360;88;21056;-75
2021/08/29 17:57:40;;;;;;;15.97;10.40;;;16.40;99.90;;;;;;6678839;88;20198;-74
2021/08/29 18:07:41;;;;;;;15.40;10.98;;;16.40;99.90;;;;;;6678803;88;20496;-75
2021/08/29 18:17:43;;;;;;;15.05;10.88;;;16.40;99.90;;;;;;6678436;88;20240;-76
2021/08/29 18:27:44;;;;;;;18.65;11.15;;;16.40;99.90;;;;;;6679891;88;20190;-75
2021/08/29 18:37:44;;;;;;;16.48;11.45;;;16.10;99.90;;;;;;6678097;88;20599;-76
2021/08/29 18:47:45;;;;;;;16.87;11.47;;;15.90;99.90;;;;;;6687119;88;20194;-74
2021/08/29 18:57:46;;;;;;;15.93;11.10;;;15.90;99.90;;;;;;6697909;88;20545;-75
2021/08/29 19:07:47;;;;;;;19.35;12.50;;;15.90;99.90;;;;;;6697229;88;20225;-78
2021/08/29 19:17:49;;;;;;;19.90;13.00;;;15.90;99.90;;;;;;6694914;88;20656;-76
2021/08/29 19:27:50;;;;;;;19.30;12.30;;;15.90;99.90;;;;;;6695648;88;20198;-75
2021/08/29 19:37:51;;;;;;;16.67;11.98;;;15.80;99.90;;;;;;6689653;88;20190;-75
2021/08/29 19:47:54;;;;;;;19.77;11.95;;;15.90;99.90;;;;;;6693357;88;20196;-75
2021/08/29 19:57:54;;;;;;;24.55;13.25;;;15.90;99.90;;;;;;6692414;88;20704;-75
2021/08/29 20:07:56;;;;;;;20.30;13.45;;;15.80;99.90;;;;;;6694548;88;20201;-75
2021/08/29 20:17:58;;;;;;;24.67;14.75;;;15.80;99.90;;;;;;6699577;88;20198;-77
2021/08/29 20:27:59;;;;;;;28.08;15.73;;;15.80;99.90;;;;;;6698956;88;20682;-78
2021/08/29 20:37:59;;;;;;;29.55;17.10;;;15.90;99.90;;;;;;6699037;88;20255;-78
2021/08/29 20:48:00;;;;;;;35.70;16.80;;;15.80;99.90;;;;;;6699429;88;20253;-77
2021/08/29 20:58:00;;;;;;;37.40;16.87;;;15.80;99.90;;;;;;6696231;88;20599;-76
2021/08/29 21:08:01;;;;;;;34.65;15.88;;;15.80;99.90;;;;;;6693753;88;20182;-76
2021/08/29 21:18:02;;;;;;;35.00;15.27;;;15.80;99.90;;;;;;6694755;88;20766;-76
2021/08/29 21:28:03;;;;;;;27.35;13.18;;;15.70;99.90;;;;;;6693115;88;20210;-77
2021/08/29 21:38:04;;;;;;;23.77;13.23;;;15.80;99.90;;;;;;6695277;88;20830;-77
2021/08/29 21:48:04;;;;;;;24.50;13.52;;;15.90;99.90;;;;;;6692884;88;20198;-76
2021/08/29 21:58:05;;;;;;;23.42;13.70;;;15.90;99.90;;;;;;6694477;88;20206;-77
2021/08/29 22:08:05;;;;;;;26.87;14.45;;;16.00;99.90;;;;;;6694606;88;20249;-77
2021/08/29 22:18:06;;;;;;;24.15;13.90;;;16.10;99.90;;;;;;6694694;88;20235;-76
2021/08/29 22:28:07;;;;;;;25.95;14.20;;;16.00;99.90;;;;;;6694103;88;20279;-78
2021/08/29 22:38:07;;;;;;;26.20;14.30;;;16.10;99.90;;;;;;6695445;88;20218;-77
2021/08/29 22:48:08;;;;;;;24.15;14.32;;;16.00;99.90;;;;;;6698379;88;20221;-76
2021/08/29 22:58:08;;;;;;;23.20;12.80;;;15.90;99.90;;;;;;6694853;88;20194;-77
2021/08/29 23:08:09;;;;;;;20.73;13.23;;;15.80;99.90;;;;;;6693915;88;20329;-77
2021/08/29 23:18:10;;;;;;;24.15;13.60;;;15.80;99.90;;;;;;6693737;88;20182;-77
2021/08/29 23:28:10;;;;;;;23.35;13.23;;;15.70;99.90;;;;;;6695141;88;20187;-76
2021/08/29 23:38:11;;;;;;;25.23;14.43;;;15.70;99.90;;;;;;6697142;88;20680;-76
2021/08/29 23:48:11;;;;;;;23.53;13.67;;;15.80;99.90;;;;;;6696124;88;20202;-76
2021/08/29 23:58:12;;;;;;;30.05;16.70;;;15.70;99.90;;;;;;6695950;88;20186;-76
